sensor_id;sensor_type;location;lat;lon;timestamp;temperature;humidity
51579;DHT22;47998;53.242;6.386;2023-12-04T00:01:25;-0.50;99.90
51579;DHT22;47998;53.242;6.386;2023-12-04T00:03:52;-0.60;99.90
51579;DHT22;47998;53.242;6.386;2023-12-04T00:06:18;-0.50;99.90
51579;DHT22;47998;53.242;6.386;2023-12-04T00:08:45;-0.70;99.90
51579;DHT22;47998;53.242;6.386;2023-12-04T00:11:10;-0.80;99.90
51579;DHT22;47998;53.242;6.386;2023-12-04T00:13:36;-0.60;99.90
51579;DHT22;47998;53.242;6.386;2023-12-04T00:16:02;-0.70;99.90
51579;DHT22;47998;53.242;6.386;2023-12-04T00:18:28;-0.80;99.90
51579;DHT22;47998;53.242;6.386;2023-12-04T00:20:54;-0.50;99.90
51579;DHT22;47998;53.242;6.386;2023-12-04T00:23:20;-0.30;99.90
51579;DHT22;47998;53.242;6.386;2023-12-04T00:25:45;-0.40;99.90
51579;DHT22;47998;53.242;6.386;2023-12-04T00:28:11;-0.50;99.90
51579;DHT22;47998;53.242;6.386;2023-12-04T00:30:37;-0.60;99.90
51579;DHT22;47998;53.242;6.386;2023-12-04T00:33:03;-0.70;99.90
51579;DHT22;47998;53.242;6.386;2023-12-04T00:35:28;-0.80;99.90
51579;DHT22;47998;53.242;6.386;2023-12-04T00:37:54;-0.80;99.90
51579;DHT22;47998;53.242;6.386;2023-12-04T00:40:20;-0.50;99.90
51579;DHT22;47998;53.242;6.386;2023-12-04T00:42:45;-0.60;99.90
51579;DHT22;47998;53.242;6.386;2023-12-04T00:45:12;-0.80;99.90
51579;DHT22;47998;53.242;6.386;2023-12-04T00:47:37;-0.50;99.90
51579;DHT22;47998;53.242;6.386;2023-12-04T00:50:03;-0.80;99.90
51579;DHT22;47998;53.242;6.386;2023-12-04T00:52:29;-0.70;99.90
51579;DHT22;47998;53.242;6.386;2023-12-04T00:54:55;-0.60;99.90
51579;DHT22;47998;53.242;6.386;2023-12-04T00:57:21;-0.50;99.90
51579;DHT22;47998;53.242;6.386;2023-12-04T00:59:49;-0.50;99.90
51579;DHT22;47998;53.242;6.386;2023-12-04T01:02:14;-0.80;99.90
51579;DHT22;47998;53.242;6.386;2023-12-04T01:04:41;-0.70;99.90
51579;DHT22;47998;53.242;6.386;2023-12-04T01:07:09;-0.50;99.90
51579;DHT22;47998;53.242;6.386;2023-12-04T01:09:35;-0.60;99.90
51579;DHT22;47998;53.242;6.386;2023-12-04T01:12:01;-0.80;99.90
51579;DHT22;47998;53.242;6.386;2023-12-04T01:14:28;-0.80;99.90
51579;DHT22;47998;53.242;6.386;2023-12-04T01:16:53;-0.50;99.90
51579;DHT22;47998;53.242;6.386;2023-12-04T01:19:19;-0.80;99.90
51579;DHT22;47998;53.242;6.386;2023-12-04T01:21:45;-0.70;99.90
51579;DHT22;47998;53.242;6.386;2023-12-04T01:24:11;-0.60;99.90
51579;DHT22;47998;53.242;6.386;2023-12-04T01:26:37;-0.60;99.90
51579;DHT22;47998;53.242;6.386;2023-12-04T01:29:03;-0.50;99.90
51579;DHT22;47998;53.242;6.386;2023-12-04T01:31:29;-0.60;99.90
51579;DHT22;47998;53.242;6.386;2023-12-04T01:33:54;-0.70;99.90
51579;DHT22;47998;53.242;6.386;2023-12-04T01:36:20;-0.80;99.90
51579;DHT22;47998;53.242;6.386;2023-12-04T01:38:46;-0.70;99.90
51579;DHT22;47998;53.242;6.386;2023-12-04T01:41:12;-0.40;99.90
51579;DHT22;47998;53.242;6.386;2023-12-04T01:43:38;-0.80;99.90
51579;DHT22;47998;53.242;6.386;2023-12-04T01:46:04;-0.50;99.90
51579;DHT22;47998;53.242;6.386;2023-12-04T01:48:30;-0.50;99.90
51579;DHT22;47998;53.242;6.386;2023-12-04T01:50:58;-0.50;99.90
51579;DHT22;47998;53.242;6.386;2023-12-04T01:53:26;-0.40;99.90
51579;DHT22;47998;53.242;6.386;2023-12-04T01:55:52;-0.40;99.90
51579;DHT22;47998;53.242;6.386;2023-12-04T01:58:18;-0.80;99.90
51579;DHT22;47998;53.242;6.386;2023-12-04T02:00:44;-0.80;99.90
51579;DHT22;47998;53.242;6.386;2023-12-04T02:03:10;-0.70;99.90
51579;DHT22;47998;53.242;6.386;2023-12-04T02:05:37;-0.80;99.90
51579;DHT22;47998;53.242;6.386;2023-12-04T02:08:03;-0.80;99.90
51579;DHT22;47998;53.242;6.386;2023-12-04T02:10:29;-0.50;99.90
51579;DHT22;47998;53.242;6.386;2023-12-04T02:12:55;-0.80;99.90
51579;DHT22;47998;53.242;6.386;2023-12-04T02:15:21;-0.50;99.90
51579;DHT22;47998;53.242;6.386;2023-12-04T02:17:47;-0.60;99.90
51579;DHT22;47998;53.242;6.386;2023-12-04T02:20:14;-0.20;99.90
51579;DHT22;47998;53.242;6.386;2023-12-04T02:22:40;-0.50;99.90
51579;DHT22;47998;53.242;6.386;2023-12-04T02:25:07;-0.80;99.90
51579;DHT22;47998;53.242;6.386;2023-12-04T02:27:40;-0.70;99.90
51579;DHT22;47998;53.242;6.386;2023-12-04T02:30:12;-0.80;99.90
51579;DHT22;47998;53.242;6.386;2023-12-04T02:32:44;-0.40;99.90
51579;DHT22;47998;53.242;6.386;2023-12-04T02:35:11;-0.80;99.90
51579;DHT22;47998;53.242;6.386;2023-12-04T02:37:38;-0.70;99.90
51579;DHT22;47998;53.242;6.386;2023-12-04T02:40:05;-0.70;99.90
51579;DHT22;47998;53.242;6.386;2023-12-04T02:42:32;-0.60;99.90
51579;DHT22;47998;53.242;6.386;2023-12-04T02:44:58;-0.20;99.90
51579;DHT22;47998;53.242;6.386;2023-12-04T02:47:24;-0.30;99.90
51579;DHT22;47998;53.242;6.386;2023-12-04T02:49:50;-0.40;99.90
51579;DHT22;47998;53.242;6.386;2023-12-04T02:52:15;-0.50;99.90
51579;DHT22;47998;53.242;6.386;2023-12-04T02:54:41;-0.60;99.90
51579;DHT22;47998;53.242;6.386;2023-12-04T02:57:07;-0.60;99.90
51579;DHT22;47998;53.242;6.386;2023-12-04T02:59:33;-0.40;99.90
51579;DHT22;47998;53.242;6.386;2023-12-04T03:01:59;-0.20;99.90
51579;DHT22;47998;53.242;6.386;2023-12-04T03:04:28;-0.10;99.90
51579;DHT22;47998;53.242;6.386;2023-12-04T03:06:55;-0.30;99.90
51579;DHT22;47998;53.242;6.386;2023-12-04T03:09:20;-0.60;99.90
51579;DHT22;47998;53.242;6.386;2023-12-04T03:11:46;-0.20;99.90
51579;DHT22;47998;53.242;6.386;2023-12-04T03:14:12;-0.70;99.90
51579;DHT22;47998;53.242;6.386;2023-12-04T03:16:37;-0.60;99.90
51579;DHT22;47998;53.242;6.386;2023-12-04T03:19:04;-0.10;99.90
51579;DHT22;47998;53.242;6.386;2023-12-04T03:21:29;-0.20;99.90
51579;DHT22;47998;53.242;6.386;2023-12-04T03:23:55;-0.30;99.90
51579;DHT22;47998;53.242;6.386;2023-12-04T03:26:21;-0.10;99.90
51579;DHT22;47998;53.242;6.386;2023-12-04T03:28:47;-0.10;99.90
51579;DHT22;47998;53.242;6.386;2023-12-04T03:31:12;-0.40;99.90
51579;DHT22;47998;53.242;6.386;2023-12-04T03:33:38;-0.50;99.90
51579;DHT22;47998;53.242;6.386;2023-12-04T03:36:05;-0.50;99.90
51579;DHT22;47998;53.242;6.386;2023-12-04T03:38:30;-0.10;99.90
51579;DHT22;47998;53.242;6.386;2023-12-04T03:40:56;-0.60;99.90
51579;DHT22;47998;53.242;6.386;2023-12-04T03:43:22;0.00;99.90
51579;DHT22;47998;53.242;6.386;2023-12-04T03:45:48;0.00;99.90
51579;DHT22;47998;53.242;6.386;2023-12-04T03:48:14;-0.60;99.90
51579;DHT22;47998;53.242;6.386;2023-12-04T03:50:40;-0.20;99.90
51579;DHT22;47998;53.242;6.386;2023-12-04T03:53:05;0.10;99.90
51579;DHT22;47998;53.242;6.386;2023-12-04T03:55:31;-0.20;99.90
51579;DHT22;47998;53.242;6.386;2023-12-04T03:57:57;-0.10;99.90
51579;DHT22;47998;53.242;6.386;2023-12-04T04:00:24;-0.30;99.90
51579;DHT22;47998;53.242;6.386;2023-12-04T04:02:49;-0.60;99.90
51579;DHT22;47998;53.242;6.386;2023-12-04T04:05:15;-0.30;99.90
51579;DHT22;47998;53.242;6.386;2023-12-04T04:07:41;0.10;99.90
51579;DHT22;47998;53.242;6.386;2023-12-04T04:10:08;-0.30;99.90
51579;DHT22;47998;53.242;6.386;2023-12-04T04:12:34;-0.70;99.90
51579;DHT22;47998;53.242;6.386;2023-12-04T04:15:00;-0.60;99.90
51579;DHT22;47998;53.242;6.386;2023-12-04T04:17:26;-0.40;99.90
51579;DHT22;47998;53.242;6.386;2023-12-04T04:19:52;-0.30;99.90
51579;DHT22;47998;53.242;6.386;2023-12-04T04:22:19;0.00;99.90
51579;DHT22;47998;53.242;6.386;2023-12-04T04:24:46;-0.50;99.90
51579;DHT22;47998;53.242;6.386;2023-12-04T04:27:12;0.00;99.90
51579;DHT22;47998;53.242;6.386;2023-12-04T04:29:37;0.10;99.90
51579;DHT22;47998;53.242;6.386;2023-12-04T04:32:03;0.10;99.90
51579;DHT22;47998;53.242;6.386;2023-12-04T04:34:29;0.10;99.90
51579;DHT22;47998;53.242;6.386;2023-12-04T04:36:55;-0.50;99.90
51579;DHT22;47998;53.242;6.386;2023-12-04T04:39:21;-0.70;99.90
51579;DHT22;47998;53.242;6.386;2023-12-04T04:41:46;-0.50;99.90
51579;DHT22;47998;53.242;6.386;2023-12-04T04:44:12;0.60;99.90
51579;DHT22;47998;53.242;6.386;2023-12-04T04:46:38;-0.70;99.90
51579;DHT22;47998;53.242;6.386;2023-12-04T04:49:04;-0.10;99.90
51579;DHT22;47998;53.242;6.386;2023-12-04T04:51:33;-0.40;99.90
51579;DHT22;47998;53.242;6.386;2023-12-04T04:54:03;-0.60;99.90
51579;DHT22;47998;53.242;6.386;2023-12-04T04:56:29;-0.70;99.90
51579;DHT22;47998;53.242;6.386;2023-12-04T04:58:55;0.00;99.90
51579;DHT22;47998;53.242;6.386;2023-12-04T05:01:21;-0.50;99.90
51579;DHT22;47998;53.242;6.386;2023-12-04T05:03:47;0.00;99.90
51579;DHT22;47998;53.242;6.386;2023-12-04T05:06:13;0.10;99.90
51579;DHT22;47998;53.242;6.386;2023-12-04T05:08:39;0.10;99.90
51579;DHT22;47998;53.242;6.386;2023-12-04T05:11:05;0.30;99.90
51579;DHT22;47998;53.242;6.386;2023-12-04T05:13:31;-0.70;99.90
51579;DHT22;47998;53.242;6.386;2023-12-04T05:15:57;-0.50;99.90
51579;DHT22;47998;53.242;6.386;2023-12-04T05:18:23;-0.70;99.90
51579;DHT22;47998;53.242;6.386;2023-12-04T05:20:48;-0.70;99.90
51579;DHT22;47998;53.242;6.386;2023-12-04T05:23:14;-0.40;99.90
51579;DHT22;47998;53.242;6.386;2023-12-04T05:25:40;-0.20;99.90
51579;DHT22;47998;53.242;6.386;2023-12-04T05:28:06;-0.10;99.90
51579;DHT22;47998;53.242;6.386;2023-12-04T05:30:32;0.20;99.90
51579;DHT22;47998;53.242;6.386;2023-12-04T05:32:58;-0.50;99.90
51579;DHT22;47998;53.242;6.386;2023-12-04T05:35:26;-0.70;99.90
51579;DHT22;47998;53.242;6.386;2023-12-04T05:37:52;0.00;99.90
51579;DHT22;47998;53.242;6.386;2023-12-04T05:40:18;-0.50;99.90
51579;DHT22;47998;53.242;6.386;2023-12-04T05:42:44;0.10;99.90
51579;DHT22;47998;53.242;6.386;2023-12-04T05:45:10;0.10;99.90
51579;DHT22;47998;53.242;6.386;2023-12-04T05:47:35;0.10;99.90
51579;DHT22;47998;53.242;6.386;2023-12-04T05:50:01;-0.10;99.90
51579;DHT22;47998;53.242;6.386;2023-12-04T05:52:27;0.00;99.90
51579;DHT22;47998;53.242;6.386;2023-12-04T05:54:53;-0.40;99.90
51579;DHT22;47998;53.242;6.386;2023-12-04T05:57:18;0.00;99.90
51579;DHT22;47998;53.242;6.386;2023-12-04T05:59:44;0.10;99.90
51579;DHT22;47998;53.242;6.386;2023-12-04T06:02:10;0.00;99.90
51579;DHT22;47998;53.242;6.386;2023-12-04T06:04:36;-0.60;99.90
51579;DHT22;47998;53.242;6.386;2023-12-04T06:07:02;0.00;99.90
51579;DHT22;47998;53.242;6.386;2023-12-04T06:09:28;0.10;99.90
51579;DHT22;47998;53.242;6.386;2023-12-04T06:11:53;-0.20;99.90
51579;DHT22;47998;53.242;6.386;2023-12-04T06:14:19;0.10;99.90
51579;DHT22;47998;53.242;6.386;2023-12-04T06:16:45;-0.60;99.90
51579;DHT22;47998;53.242;6.386;2023-12-04T06:19:11;-0.50;99.90
51579;DHT22;47998;53.242;6.386;2023-12-04T06:21:36;-0.70;99.90
51579;DHT22;47998;53.242;6.386;2023-12-04T06:24:02;-0.60;99.90
51579;DHT22;47998;53.242;6.386;2023-12-04T06:26:30;-0.60;99.90
51579;DHT22;47998;53.242;6.386;2023-12-04T06:28:57;-0.10;99.90
51579;DHT22;47998;53.242;6.386;2023-12-04T06:31:23;-0.60;99.90
51579;DHT22;47998;53.242;6.386;2023-12-04T06:33:49;-0.60;99.90
51579;DHT22;47998;53.242;6.386;2023-12-04T06:36:15;-0.20;99.90
51579;DHT22;47998;53.242;6.386;2023-12-04T06:38:43;0.00;99.90
51579;DHT22;47998;53.242;6.386;2023-12-04T06:41:13;-0.50;99.90
51579;DHT22;47998;53.242;6.386;2023-12-04T06:43:39;-0.50;99.90
51579;DHT22;47998;53.242;6.386;2023-12-04T06:46:05;-0.30;99.90
51579;DHT22;47998;53.242;6.386;2023-12-04T06:48:31;-0.30;99.90
51579;DHT22;47998;53.242;6.386;2023-12-04T06:50:58;-0.70;99.90
51579;DHT22;47998;53.242;6.386;2023-12-04T06:53:24;0.00;99.90
51579;DHT22;47998;53.242;6.386;2023-12-04T06:55:49;0.00;99.90
51579;DHT22;47998;53.242;6.386;2023-12-04T06:58:15;-0.20;99.90
51579;DHT22;47998;53.242;6.386;2023-12-04T07:00:41;-0.20;99.90
51579;DHT22;47998;53.242;6.386;2023-12-04T07:03:07;-0.50;99.90
51579;DHT22;47998;53.242;6.386;2023-12-04T07:05:32;-0.10;99.90
51579;DHT22;47998;53.242;6.386;2023-12-04T07:07:58;-0.50;99.90
51579;DHT22;47998;53.242;6.386;2023-12-04T07:10:24;-0.40;99.90
51579;DHT22;47998;53.242;6.386;2023-12-04T07:12:50;-0.70;99.90
51579;DHT22;47998;53.242;6.386;2023-12-04T07:15:16;-0.20;99.90
51579;DHT22;47998;53.242;6.386;2023-12-04T07:17:42;-0.60;99.90
51579;DHT22;47998;53.242;6.386;2023-12-04T07:20:08;-0.70;99.90
51579;DHT22;47998;53.242;6.386;2023-12-04T07:22:35;-0.30;99.90
51579;DHT22;47998;53.242;6.386;2023-12-04T07:25:01;-0.40;99.90
51579;DHT22;47998;53.242;6.386;2023-12-04T07:27:27;-0.70;99.90
51579;DHT22;47998;53.242;6.386;2023-12-04T07:29:53;-0.40;99.90
51579;DHT22;47998;53.242;6.386;2023-12-04T07:32:19;-0.40;99.90
51579;DHT22;47998;53.242;6.386;2023-12-04T07:34:45;-0.80;99.90
51579;DHT22;47998;53.242;6.386;2023-12-04T07:37:11;-0.60;99.90
51579;DHT22;47998;53.242;6.386;2023-12-04T07:39:37;-0.60;99.90
51579;DHT22;47998;53.242;6.386;2023-12-04T07:42:03;-0.70;99.90
51579;DHT22;47998;53.242;6.386;2023-12-04T07:44:29;-0.60;99.90
51579;DHT22;47998;53.242;6.386;2023-12-04T07:46:55;-0.70;99.90
51579;DHT22;47998;53.242;6.386;2023-12-04T07:49:21;-0.70;99.90
51579;DHT22;47998;53.242;6.386;2023-12-04T07:51:47;-0.40;99.90
51579;DHT22;47998;53.242;6.386;2023-12-04T07:54:16;-0.50;99.90
51579;DHT22;47998;53.242;6.386;2023-12-04T07:56:41;-0.70;99.90
51579;DHT22;47998;53.242;6.386;2023-12-04T07:59:08;-0.40;99.90
51579;DHT22;47998;53.242;6.386;2023-12-04T08:01:34;-0.50;99.90
51579;DHT22;47998;53.242;6.386;2023-12-04T08:04:00;-0.40;99.90
51579;DHT22;47998;53.242;6.386;2023-12-04T08:06:26;-0.60;99.90
51579;DHT22;47998;53.242;6.386;2023-12-04T08:08:51;-0.30;99.90
51579;DHT22;47998;53.242;6.386;2023-12-04T08:11:18;-0.50;99.90
51579;DHT22;47998;53.242;6.386;2023-12-04T08:13:44;-0.30;99.90
51579;DHT22;47998;53.242;6.386;2023-12-04T08:16:13;-0.50;99.90
51579;DHT22;47998;53.242;6.386;2023-12-04T08:18:40;-0.30;99.90
51579;DHT22;47998;53.242;6.386;2023-12-04T08:21:06;-0.30;99.90
51579;DHT22;47998;53.242;6.386;2023-12-04T08:23:32;-0.40;99.90
51579;DHT22;47998;53.242;6.386;2023-12-04T08:25:58;-0.20;99.90
51579;DHT22;47998;53.242;6.386;2023-12-04T08:28:24;-0.20;99.90
51579;DHT22;47998;53.242;6.386;2023-12-04T08:30:50;-0.30;99.90
51579;DHT22;47998;53.242;6.386;2023-12-04T08:33:16;-0.20;99.90
51579;DHT22;47998;53.242;6.386;2023-12-04T08:35:41;-0.20;99.90
51579;DHT22;47998;53.242;6.386;2023-12-04T08:38:07;-0.30;99.90
51579;DHT22;47998;53.242;6.386;2023-12-04T08:40:33;-0.30;99.90
51579;DHT22;47998;53.242;6.386;2023-12-04T08:42:59;-0.20;99.90
51579;DHT22;47998;53.242;6.386;2023-12-04T08:45:24;-0.20;99.90
51579;DHT22;47998;53.242;6.386;2023-12-04T08:47:50;-0.20;99.90
51579;DHT22;47998;53.242;6.386;2023-12-04T08:50:16;0.00;99.90
51579;DHT22;47998;53.242;6.386;2023-12-04T08:52:42;-0.10;99.90
51579;DHT22;47998;53.242;6.386;2023-12-04T08:55:09;0.00;99.90
51579;DHT22;47998;53.242;6.386;2023-12-04T08:57:35;0.00;99.90
51579;DHT22;47998;53.242;6.386;2023-12-04T09:00:01;0.10;99.90
51579;DHT22;47998;53.242;6.386;2023-12-04T09:02:29;0.00;99.90
51579;DHT22;47998;53.242;6.386;2023-12-04T09:04:56;0.10;99.90
51579;DHT22;47998;53.242;6.386;2023-12-04T09:07:22;0.10;99.90
51579;DHT22;47998;53.242;6.386;2023-12-04T09:09:47;0.30;99.90
51579;DHT22;47998;53.242;6.386;2023-12-04T09:12:14;0.50;99.90
51579;DHT22;47998;53.242;6.386;2023-12-04T09:14:40;0.30;99.90
51579;DHT22;47998;53.242;6.386;2023-12-04T09:17:06;0.20;99.90
51579;DHT22;47998;53.242;6.386;2023-12-04T09:19:32;0.20;99.90
51579;DHT22;47998;53.242;6.386;2023-12-04T09:21:58;0.40;99.90
51579;DHT22;47998;53.242;6.386;2023-12-04T09:24:23;0.30;99.90
51579;DHT22;47998;53.242;6.386;2023-12-04T09:26:49;0.50;99.90
51579;DHT22;47998;53.242;6.386;2023-12-04T09:29:15;0.40;99.90
51579;DHT22;47998;53.242;6.386;2023-12-04T09:31:45;0.40;99.90
51579;DHT22;47998;53.242;6.386;2023-12-04T09:34:11;0.50;99.90
51579;DHT22;47998;53.242;6.386;2023-12-04T09:36:37;0.40;99.90
51579;DHT22;47998;53.242;6.386;2023-12-04T09:39:03;0.40;99.90
51579;DHT22;47998;53.242;6.386;2023-12-04T09:41:30;0.40;99.90
51579;DHT22;47998;53.242;6.386;2023-12-04T09:43:56;0.40;99.90
51579;DHT22;47998;53.242;6.386;2023-12-04T09:46:22;0.40;99.90
51579;DHT22;47998;53.242;6.386;2023-12-04T09:48:49;0.40;99.90
51579;DHT22;47998;53.242;6.386;2023-12-04T09:51:18;0.40;99.90
51579;DHT22;47998;53.242;6.386;2023-12-04T09:53:47;0.50;99.90
51579;DHT22;47998;53.242;6.386;2023-12-04T09:56:18;0.50;99.90
51579;DHT22;47998;53.242;6.386;2023-12-04T09:58:45;0.50;99.90
51579;DHT22;47998;53.242;6.386;2023-12-04T10:01:13;0.50;99.90
51579;DHT22;47998;53.242;6.386;2023-12-04T10:03:40;0.60;99.90
51579;DHT22;47998;53.242;6.386;2023-12-04T10:06:08;0.60;99.90
51579;DHT22;47998;53.242;6.386;2023-12-04T10:08:34;0.70;99.90
51579;DHT22;47998;53.242;6.386;2023-12-04T10:11:00;0.70;99.90
51579;DHT22;47998;53.242;6.386;2023-12-04T10:13:27;0.70;99.90
51579;DHT22;47998;53.242;6.386;2023-12-04T10:15:53;0.90;99.90
51579;DHT22;47998;53.242;6.386;2023-12-04T10:18:26;0.90;99.90
51579;DHT22;47998;53.242;6.386;2023-12-04T10:20:56;1.10;99.90
51579;DHT22;47998;53.242;6.386;2023-12-04T10:23:23;1.10;99.90
51579;DHT22;47998;53.242;6.386;2023-12-04T10:25:49;1.60;99.90
51579;DHT22;47998;53.242;6.386;2023-12-04T10:28:16;1.30;99.90
51579;DHT22;47998;53.242;6.386;2023-12-04T10:30:42;1.50;99.90
51579;DHT22;47998;53.242;6.386;2023-12-04T10:33:10;1.50;99.90
51579;DHT22;47998;53.242;6.386;2023-12-04T10:35:36;1.50;99.90
51579;DHT22;47998;53.242;6.386;2023-12-04T10:38:03;1.60;99.90
51579;DHT22;47998;53.242;6.386;2023-12-04T10:40:31;1.60;99.90
51579;DHT22;47998;53.242;6.386;2023-12-04T10:43:18;1.70;99.90
51579;DHT22;47998;53.242;6.386;2023-12-04T10:45:46;1.70;99.90
51579;DHT22;47998;53.242;6.386;2023-12-04T10:48:13;1.80;99.90
51579;DHT22;47998;53.242;6.386;2023-12-04T10:50:41;1.80;99.90
51579;DHT22;47998;53.242;6.386;2023-12-04T10:53:08;1.80;99.90
51579;DHT22;47998;53.242;6.386;2023-12-04T10:55:35;1.80;99.90
51579;DHT22;47998;53.242;6.386;2023-12-04T10:58:12;1.80;99.90
51579;DHT22;47998;53.242;6.386;2023-12-04T11:00:43;1.90;99.90
51579;DHT22;47998;53.242;6.386;2023-12-04T11:03:13;1.90;99.90
51579;DHT22;47998;53.242;6.386;2023-12-04T11:05:41;2.00;99.90
51579;DHT22;47998;53.242;6.386;2023-12-04T11:08:09;2.00;99.90
51579;DHT22;47998;53.242;6.386;2023-12-04T11:10:50;2.00;99.90
51579;DHT22;47998;53.242;6.386;2023-12-04T11:13:26;2.60;99.90
51579;DHT22;47998;53.242;6.386;2023-12-04T11:15:56;2.00;99.90
51579;DHT22;47998;53.242;6.386;2023-12-04T11:18:25;2.10;99.90
51579;DHT22;47998;53.242;6.386;2023-12-04T11:21:06;2.00;99.90
51579;DHT22;47998;53.242;6.386;2023-12-04T11:23:33;2.20;99.90
51579;DHT22;47998;53.242;6.386;2023-12-04T11:26:00;2.20;99.90
51579;DHT22;47998;53.242;6.386;2023-12-04T11:28:27;2.20;99.90
51579;DHT22;47998;53.242;6.386;2023-12-04T11:30:54;2.20;99.90
51579;DHT22;47998;53.242;6.386;2023-12-04T11:33:20;2.20;99.90
51579;DHT22;47998;53.242;6.386;2023-12-04T11:35:46;2.30;99.90
51579;DHT22;47998;53.242;6.386;2023-12-04T11:38:16;2.30;99.90
51579;DHT22;47998;53.242;6.386;2023-12-04T11:40:42;2.40;99.90
51579;DHT22;47998;53.242;6.386;2023-12-04T11:43:27;2.40;99.90
51579;DHT22;47998;53.242;6.386;2023-12-04T11:46:10;2.50;99.90
51579;DHT22;47998;53.242;6.386;2023-12-04T11:48:37;2.60;99.90
51579;DHT22;47998;53.242;6.386;2023-12-04T11:51:05;2.60;99.90
51579;DHT22;47998;53.242;6.386;2023-12-04T11:53:36;2.60;99.90
51579;DHT22;47998;53.242;6.386;2023-12-04T11:56:09;2.70;99.90
51579;DHT22;47998;53.242;6.386;2023-12-04T11:58:42;2.60;99.90
51579;DHT22;47998;53.242;6.386;2023-12-04T12:01:08;2.50;99.90
51579;DHT22;47998;53.242;6.386;2023-12-04T12:03:34;2.40;99.90
51579;DHT22;47998;53.242;6.386;2023-12-04T12:06:00;2.30;99.90
51579;DHT22;47998;53.242;6.386;2023-12-04T12:08:28;2.20;99.90
51579;DHT22;47998;53.242;6.386;2023-12-04T12:10:54;2.10;99.90
51579;DHT22;47998;53.242;6.386;2023-12-04T12:13:21;2.00;99.90
51579;DHT22;47998;53.242;6.386;2023-12-04T12:15:47;1.90;99.90
51579;DHT22;47998;53.242;6.386;2023-12-04T12:18:16;1.90;99.90
51579;DHT22;47998;53.242;6.386;2023-12-04T12:20:42;1.90;99.90
51579;DHT22;47998;53.242;6.386;2023-12-04T12:23:08;1.80;99.90
51579;DHT22;47998;53.242;6.386;2023-12-04T12:25:35;1.80;99.90
51579;DHT22;47998;53.242;6.386;2023-12-04T12:28:05;1.70;99.90
51579;DHT22;47998;53.242;6.386;2023-12-04T12:30:31;1.70;99.90
51579;DHT22;47998;53.242;6.386;2023-12-04T12:32:57;1.70;99.90
51579;DHT22;47998;53.242;6.386;2023-12-04T12:35:23;1.60;99.90
51579;DHT22;47998;53.242;6.386;2023-12-04T12:37:50;1.50;99.90
51579;DHT22;47998;53.242;6.386;2023-12-04T12:40:21;1.50;99.90
51579;DHT22;47998;53.242;6.386;2023-12-04T12:42:47;1.50;99.90
51579;DHT22;47998;53.242;6.386;2023-12-04T12:45:13;1.50;99.90
51579;DHT22;47998;53.242;6.386;2023-12-04T12:47:43;1.40;99.90
51579;DHT22;47998;53.242;6.386;2023-12-04T12:50:09;1.40;99.90
51579;DHT22;47998;53.242;6.386;2023-12-04T12:52:39;1.40;99.90
51579;DHT22;47998;53.242;6.386;2023-12-04T12:55:06;1.40;99.90
51579;DHT22;47998;53.242;6.386;2023-12-04T12:57:32;1.40;99.90
51579;DHT22;47998;53.242;6.386;2023-12-04T12:59:58;1.30;99.90
51579;DHT22;47998;53.242;6.386;2023-12-04T13:02:24;1.30;99.90
51579;DHT22;47998;53.242;6.386;2023-12-04T13:04:50;1.30;99.90
51579;DHT22;47998;53.242;6.386;2023-12-04T13:07:16;1.30;99.90
51579;DHT22;47998;53.242;6.386;2023-12-04T13:09:43;1.20;99.90
51579;DHT22;47998;53.242;6.386;2023-12-04T13:12:09;1.30;99.90
51579;DHT22;47998;53.242;6.386;2023-12-04T13:14:35;1.20;99.90
51579;DHT22;47998;53.242;6.386;2023-12-04T13:17:02;1.20;99.90
51579;DHT22;47998;53.242;6.386;2023-12-04T13:19:28;1.10;99.90
51579;DHT22;47998;53.242;6.386;2023-12-04T13:21:54;1.10;99.90
51579;DHT22;47998;53.242;6.386;2023-12-04T13:24:19;1.10;99.90
51579;DHT22;47998;53.242;6.386;2023-12-04T13:26:45;1.10;99.90
51579;DHT22;47998;53.242;6.386;2023-12-04T13:29:12;1.20;99.90
51579;DHT22;47998;53.242;6.386;2023-12-04T13:31:40;1.10;99.90
51579;DHT22;47998;53.242;6.386;2023-12-04T13:34:06;1.20;99.90
51579;DHT22;47998;53.242;6.386;2023-12-04T13:36:33;1.20;99.90
51579;DHT22;47998;53.242;6.386;2023-12-04T13:38:59;1.20;99.90
51579;DHT22;47998;53.242;6.386;2023-12-04T13:41:25;1.20;99.90
51579;DHT22;47998;53.242;6.386;2023-12-04T13:44:09;1.20;99.90
51579;DHT22;47998;53.242;6.386;2023-12-04T13:46:37;1.20;99.90
51579;DHT22;47998;53.242;6.386;2023-12-04T13:49:03;1.20;99.90
51579;DHT22;47998;53.242;6.386;2023-12-04T13:51:32;1.20;99.90
51579;DHT22;47998;53.242;6.386;2023-12-04T13:53:58;1.20;99.90
51579;DHT22;47998;53.242;6.386;2023-12-04T13:56:34;1.20;99.90
51579;DHT22;47998;53.242;6.386;2023-12-04T13:59:22;1.20;99.90
51579;DHT22;47998;53.242;6.386;2023-12-04T14:01:50;1.10;99.90
51579;DHT22;47998;53.242;6.386;2023-12-04T14:04:17;1.10;99.90
51579;DHT22;47998;53.242;6.386;2023-12-04T14:06:43;1.00;99.90
51579;DHT22;47998;53.242;6.386;2023-12-04T14:09:10;1.00;99.90
51579;DHT22;47998;53.242;6.386;2023-12-04T14:11:43;1.00;99.90
51579;DHT22;47998;53.242;6.386;2023-12-04T14:14:13;0.90;99.90
51579;DHT22;47998;53.242;6.386;2023-12-04T14:16:39;0.90;99.90
51579;DHT22;47998;53.242;6.386;2023-12-04T14:19:05;0.90;99.90
51579;DHT22;47998;53.242;6.386;2023-12-04T14:21:32;0.80;99.90
51579;DHT22;47998;53.242;6.386;2023-12-04T14:23:57;0.80;99.90
51579;DHT22;47998;53.242;6.386;2023-12-04T14:26:23;0.70;99.90
51579;DHT22;47998;53.242;6.386;2023-12-04T14:28:50;0.70;99.90
51579;DHT22;47998;53.242;6.386;2023-12-04T14:31:15;0.70;99.90
51579;DHT22;47998;53.242;6.386;2023-12-04T14:33:41;0.80;99.90
51579;DHT22;47998;53.242;6.386;2023-12-04T14:36:07;0.80;99.90
51579;DHT22;47998;53.242;6.386;2023-12-04T14:38:33;0.80;99.90
51579;DHT22;47998;53.242;6.386;2023-12-04T14:41:00;0.90;99.90
51579;DHT22;47998;53.242;6.386;2023-12-04T14:43:26;0.90;99.90
51579;DHT22;47998;53.242;6.386;2023-12-04T14:45:52;0.80;99.90
51579;DHT22;47998;53.242;6.386;2023-12-04T14:48:18;0.80;99.90
51579;DHT22;47998;53.242;6.386;2023-12-04T14:50:44;0.80;99.90
51579;DHT22;47998;53.242;6.386;2023-12-04T14:53:11;0.70;99.90
51579;DHT22;47998;53.242;6.386;2023-12-04T14:55:54;0.70;99.90
51579;DHT22;47998;53.242;6.386;2023-12-04T14:58:31;0.50;99.90
51579;DHT22;47998;53.242;6.386;2023-12-04T15:01:00;0.40;99.90
51579;DHT22;47998;53.242;6.386;2023-12-04T15:03:46;0.30;99.90
51579;DHT22;47998;53.242;6.386;2023-12-04T15:06:23;0.30;99.90
51579;DHT22;47998;53.242;6.386;2023-12-04T15:08:49;0.20;99.90
51579;DHT22;47998;53.242;6.386;2023-12-04T15:11:35;0.20;99.90
51579;DHT22;47998;53.242;6.386;2023-12-04T15:14:33;0.10;99.90
51579;DHT22;47998;53.242;6.386;2023-12-04T15:17:04;0.10;99.90
51579;DHT22;47998;53.242;6.386;2023-12-04T15:19:49;0.10;99.90
51579;DHT22;47998;53.242;6.386;2023-12-04T15:22:33;0.00;99.90
51579;DHT22;47998;53.242;6.386;2023-12-04T15:24:59;0.40;99.90
51579;DHT22;47998;53.242;6.386;2023-12-04T15:27:25;-0.10;99.90
51579;DHT22;47998;53.242;6.386;2023-12-04T15:29:51;-0.10;99.90
51579;DHT22;47998;53.242;6.386;2023-12-04T15:32:16;-0.10;99.90
51579;DHT22;47998;53.242;6.386;2023-12-04T15:34:42;-0.10;99.90
51579;DHT22;47998;53.242;6.386;2023-12-04T15:37:08;-0.20;99.90